sensor_id;sensor_type;location;lat;lon;timestamp;pressure;altitude;pressure_sealevel;temperature;humidity
55460;BME280;41326;45.302;-122.946;2023-01-31T00:01:21;102302.17;;;17.22;48.45
55460;BME280;41326;45.302;-122.946;2023-01-31T00:03:51;102300.09;;;17.21;48.44
55460;BME280;41326;45.302;-122.946;2023-01-31T00:06:22;102297.68;;;17.16;48.57
55460;BME280;41326;45.302;-122.946;2023-01-31T00:08:51;102295.88;;;17.19;48.34
55460;BME280;41326;45.302;-122.946;2023-01-31T00:11:23;102292.72;;;17.19;48.25
55460;BME280;41326;45.302;-122.946;2023-01-31T00:13:52;102290.68;;;17.20;48.25
55460;BME280;41326;45.302;-122.946;2023-01-31T00:16:21;102285.23;;;17.20;48.23
55460;BME280;41326;45.302;-122.946;2023-01-31T00:18:52;102281.09;;;17.17;48.24
55460;BME280;41326;45.302;-122.946;2023-01-31T00:21:24;102277.05;;;17.20;48.18
55460;BME280;41326;45.302;-122.946;2023-01-31T00:23:53;102275.88;;;17.20;48.13
55460;BME280;41326;45.302;-122.946;2023-01-31T00:26:25;102277.00;;;17.20;48.25
55460;BME280;41326;45.302;-122.946;2023-01-31T00:28:53;102270.17;;;17.22;48.29
55460;BME280;41326;45.302;-122.946;2023-01-31T00:31:24;102263.96;;;17.19;48.50
55460;BME280;41326;45.302;-122.946;2023-01-31T00:33:53;102256.91;;;17.18;48.50
55460;BME280;41326;45.302;-122.946;2023-01-31T00:36:25;102250.56;;;17.20;48.42
55460;BME280;41326;45.302;-122.946;2023-01-31T00:38:54;102244.17;;;17.14;48.29
55460;BME280;41326;45.302;-122.946;2023-01-31T00:41:25;102245.40;;;17.24;48.07
55460;BME280;41326;45.302;-122.946;2023-01-31T00:43:54;102240.36;;;17.38;47.92
55460;BME280;41326;45.302;-122.946;2023-01-31T00:46:24;102239.52;;;17.53;47.43
55460;BME280;41326;45.302;-122.946;2023-01-31T00:48:55;102242.87;;;17.70;47.33
55460;BME280;41326;45.302;-122.946;2023-01-31T00:51:26;102236.15;;;17.82;46.82
55460;BME280;41326;45.302;-122.946;2023-01-31T00:53:56;102223.26;;;17.86;46.84
55460;BME280;41326;45.302;-122.946;2023-01-31T00:56:26;102214.53;;;17.85;47.20
55460;BME280;41326;45.302;-122.946;2023-01-31T00:58:56;102208.81;;;17.82;47.21
55460;BME280;41326;45.302;-122.946;2023-01-31T01:01:28;102199.94;;;17.84;46.89
55460;BME280;41326;45.302;-122.946;2023-01-31T01:03:57;102189.61;;;17.93;46.72
55460;BME280;41326;45.302;-122.946;2023-01-31T01:06:28;102186.74;;;18.09;46.48
55460;BME280;41326;45.302;-122.946;2023-01-31T01:08:59;102182.26;;;18.20;46.37
55460;BME280;41326;45.302;-122.946;2023-01-31T01:12:36;102185.91;;;18.36;46.02
55460;BME280;41326;45.302;-122.946;2023-01-31T01:15:06;102188.43;;;18.41;46.08
55460;BME280;41326;45.302;-122.946;2023-01-31T01:17:37;102190.30;;;18.39;46.24
55460;BME280;41326;45.302;-122.946;2023-01-31T01:20:07;102189.57;;;18.33;46.36
55460;BME280;41326;45.302;-122.946;2023-01-31T01:22:42;102188.17;;;18.24;46.66
55460;BME280;41326;45.302;-122.946;2023-01-31T01:25:13;102198.93;;;18.28;46.65
55460;BME280;41326;45.302;-122.946;2023-01-31T01:27:43;102201.38;;;18.35;46.40
55460;BME280;41326;45.302;-122.946;2023-01-31T01:30:13;102191.65;;;18.42;46.24
55460;BME280;41326;45.302;-122.946;2023-01-31T01:32:43;102179.45;;;18.49;46.12
55460;BME280;41326;45.302;-122.946;2023-01-31T01:35:13;102168.73;;;18.56;46.28
55460;BME280;41326;45.302;-122.946;2023-01-31T01:37:44;102165.52;;;18.50;46.54
55460;BME280;41326;45.302;-122.946;2023-01-31T01:40:15;102157.58;;;18.43;46.70
55460;BME280;41326;45.302;-122.946;2023-01-31T01:42:44;102162.09;;;18.38;47.03
55460;BME280;41326;45.302;-122.946;2023-01-31T01:45:18;102168.91;;;18.33;47.21
55460;BME280;41326;45.302;-122.946;2023-01-31T01:47:48;102164.30;;;18.37;47.22
55460;BME280;41326;45.302;-122.946;2023-01-31T01:50:20;102152.96;;;18.45;47.08
55460;BME280;41326;45.302;-122.946;2023-01-31T01:52:49;102155.35;;;18.47;47.16
55460;BME280;41326;45.302;-122.946;2023-01-31T01:55:21;102152.74;;;18.49;47.14
55460;BME280;41326;45.302;-122.946;2023-01-31T01:57:50;102147.20;;;18.48;47.20
55460;BME280;41326;45.302;-122.946;2023-01-31T02:00:19;102151.39;;;18.44;47.29
55460;BME280;41326;45.302;-122.946;2023-01-31T02:02:49;102151.74;;;18.42;47.21
55460;BME280;41326;45.302;-122.946;2023-01-31T02:05:20;102154.55;;;18.34;47.53
55460;BME280;41326;45.302;-122.946;2023-01-31T02:07:48;102150.67;;;18.33;47.69
55460;BME280;41326;45.302;-122.946;2023-01-31T02:10:22;102153.94;;;18.30;47.34
55460;BME280;41326;45.302;-122.946;2023-01-31T02:12:50;102157.61;;;18.29;47.56
55460;BME280;41326;45.302;-122.946;2023-01-31T02:15:19;102158.50;;;18.33;47.25
55460;BME280;41326;45.302;-122.946;2023-01-31T02:17:49;102159.98;;;18.40;46.67
55460;BME280;41326;45.302;-122.946;2023-01-31T02:23:01;102147.91;;;18.43;46.53
55460;BME280;41326;45.302;-122.946;2023-01-31T02:28:01;102150.78;;;18.30;47.27
55460;BME280;41326;45.302;-122.946;2023-01-31T02:30:30;102154.98;;;18.27;47.58
55460;BME280;41326;45.302;-122.946;2023-01-31T02:33:01;102154.04;;;18.21;48.25
55460;BME280;41326;45.302;-122.946;2023-01-31T02:35:31;102151.31;;;18.15;48.45
55460;BME280;41326;45.302;-122.946;2023-01-31T02:37:58;102157.92;;;18.14;48.17
55460;BME280;41326;45.302;-122.946;2023-01-31T02:40:26;102158.73;;;18.16;49.42
55460;BME280;41326;45.302;-122.946;2023-01-31T02:42:58;102152.47;;;18.21;49.84
55460;BME280;41326;45.302;-122.946;2023-01-31T02:45:27;102144.58;;;18.23;49.64
55460;BME280;41326;45.302;-122.946;2023-01-31T02:48:01;102141.35;;;18.31;49.58
55460;BME280;41326;45.302;-122.946;2023-01-31T02:50:28;102135.95;;;18.40;49.21
55460;BME280;41326;45.302;-122.946;2023-01-31T02:52:57;102136.48;;;18.46;48.71
55460;BME280;41326;45.302;-122.946;2023-01-31T02:55:27;102140.76;;;18.46;48.65
55460;BME280;41326;45.302;-122.946;2023-01-31T02:57:56;102140.59;;;18.42;49.46
55460;BME280;41326;45.302;-122.946;2023-01-31T03:00:26;102135.97;;;18.41;49.73
55460;BME280;41326;45.302;-122.946;2023-01-31T03:02:55;102134.31;;;18.42;49.47
55460;BME280;41326;45.302;-122.946;2023-01-31T03:05:25;102140.44;;;18.36;50.23
55460;BME280;41326;45.302;-122.946;2023-01-31T03:07:56;102144.51;;;18.30;50.99
55460;BME280;41326;45.302;-122.946;2023-01-31T03:13:08;102153.44;;;18.27;51.79
55460;BME280;41326;45.302;-122.946;2023-01-31T03:18:04;102145.15;;;18.25;50.92
55460;BME280;41326;45.302;-122.946;2023-01-31T03:20:30;102145.62;;;18.26;50.54
55460;BME280;41326;45.302;-122.946;2023-01-31T03:23:03;102139.46;;;18.34;50.11
55460;BME280;41326;45.302;-122.946;2023-01-31T03:25:31;102135.59;;;18.40;49.53
55460;BME280;41326;45.302;-122.946;2023-01-31T03:28:03;102131.66;;;18.43;49.65
55460;BME280;41326;45.302;-122.946;2023-01-31T03:30:34;102124.92;;;18.40;49.21
55460;BME280;41326;45.302;-122.946;2023-01-31T03:33:03;102118.78;;;18.35;49.13
55460;BME280;41326;45.302;-122.946;2023-01-31T03:35:32;102119.83;;;18.28;49.68
55460;BME280;41326;45.302;-122.946;2023-01-31T03:38:04;102124.61;;;18.26;49.97
55460;BME280;41326;45.302;-122.946;2023-01-31T03:40:32;102125.01;;;18.20;49.88
55460;BME280;41326;45.302;-122.946;2023-01-31T03:43:03;102114.83;;;18.16;49.74
55460;BME280;41326;45.302;-122.946;2023-01-31T03:45:37;102106.24;;;18.15;49.74
55460;BME280;41326;45.302;-122.946;2023-01-31T03:48:02;102102.49;;;18.21;49.35
55460;BME280;41326;45.302;-122.946;2023-01-31T03:50:35;102096.60;;;18.31;48.66
55460;BME280;41326;45.302;-122.946;2023-01-31T03:53:05;102085.06;;;18.40;48.59
55460;BME280;41326;45.302;-122.946;2023-01-31T03:55:37;102081.87;;;18.38;48.54
55460;BME280;41326;45.302;-122.946;2023-01-31T03:58:04;102091.59;;;18.37;48.62
55460;BME280;41326;45.302;-122.946;2023-01-31T04:00:33;102095.75;;;18.33;48.81
55460;BME280;41326;45.302;-122.946;2023-01-31T04:03:16;102094.58;;;18.25;48.85
55460;BME280;41326;45.302;-122.946;2023-01-31T04:05:34;102101.75;;;18.24;48.75
55460;BME280;41326;45.302;-122.946;2023-01-31T04:08:04;102106.25;;;18.24;48.93
55460;BME280;41326;45.302;-122.946;2023-01-31T04:10:35;102110.32;;;18.18;48.68
55460;BME280;41326;45.302;-122.946;2023-01-31T04:13:05;102112.73;;;18.16;49.06
55460;BME280;41326;45.302;-122.946;2023-01-31T04:15:35;102114.61;;;18.14;48.81
55460;BME280;41326;45.302;-122.946;2023-01-31T04:18:05;102115.08;;;18.10;48.70
55460;BME280;41326;45.302;-122.946;2023-01-31T04:20:36;102118.48;;;18.14;48.65
55460;BME280;41326;45.302;-122.946;2023-01-31T04:23:08;102114.98;;;18.22;48.34
55460;BME280;41326;45.302;-122.946;2023-01-31T04:25:37;102107.90;;;18.32;47.85
55460;BME280;41326;45.302;-122.946;2023-01-31T04:28:08;102109.28;;;18.38;47.56
55460;BME280;41326;45.302;-122.946;2023-01-31T04:30:37;102116.24;;;18.36;47.66
55460;BME280;41326;45.302;-122.946;2023-01-31T04:33:08;102124.39;;;18.31;47.87
55460;BME280;41326;45.302;-122.946;2023-01-31T04:35:38;102137.40;;;18.23;47.95
55460;BME280;41326;45.302;-122.946;2023-01-31T04:38:08;102146.19;;;18.17;47.88
55460;BME280;41326;45.302;-122.946;2023-01-31T04:40:39;102147.59;;;18.18;47.53
55460;BME280;41326;45.302;-122.946;2023-01-31T04:43:11;102144.06;;;18.24;47.32
55460;BME280;41326;45.302;-122.946;2023-01-31T04:45:40;102145.58;;;18.33;46.94
55460;BME280;41326;45.302;-122.946;2023-01-31T04:48:11;102148.29;;;18.35;46.96
55460;BME280;41326;45.302;-122.946;2023-01-31T04:50:41;102154.97;;;18.33;47.03
55460;BME280;41326;45.302;-122.946;2023-01-31T04:53:11;102158.36;;;18.29;47.13
55460;BME280;41326;45.302;-122.946;2023-01-31T04:55:42;102159.28;;;18.20;47.03
55460;BME280;41326;45.302;-122.946;2023-01-31T04:58:12;102161.65;;;18.17;47.27
55460;BME280;41326;45.302;-122.946;2023-01-31T05:00:43;102160.45;;;18.13;47.21
55460;BME280;41326;45.302;-122.946;2023-01-31T05:03:13;102155.75;;;18.14;47.19
55460;BME280;41326;45.302;-122.946;2023-01-31T05:05:44;102162.54;;;18.20;47.08
55460;BME280;41326;45.302;-122.946;2023-01-31T05:08:14;102166.83;;;18.20;47.08
55460;BME280;41326;45.302;-122.946;2023-01-31T05:10:44;102168.51;;;18.16;47.05
55460;BME280;41326;45.302;-122.946;2023-01-31T05:13:15;102163.94;;;18.08;47.25
55460;BME280;41326;45.302;-122.946;2023-01-31T05:15:47;102157.32;;;18.05;47.24
55460;BME280;41326;45.302;-122.946;2023-01-31T05:18:16;102159.27;;;18.01;47.32
55460;BME280;41326;45.302;-122.946;2023-01-31T05:20:46;102161.85;;;17.94;47.20
55460;BME280;41326;45.302;-122.946;2023-01-31T05:23:17;102163.10;;;17.93;46.95
55460;BME280;41326;45.302;-122.946;2023-01-31T05:25:48;102166.42;;;17.91;47.18
55460;BME280;41326;45.302;-122.946;2023-01-31T05:28:17;102171.44;;;17.89;47.26
55460;BME280;41326;45.302;-122.946;2023-01-31T05:30:47;102174.33;;;17.83;47.25
55460;BME280;41326;45.302;-122.946;2023-01-31T05:33:18;102176.25;;;17.80;47.22
55460;BME280;41326;45.302;-122.946;2023-01-31T05:35:48;102176.09;;;17.76;47.14
55460;BME280;41326;45.302;-122.946;2023-01-31T05:38:18;102176.88;;;17.72;47.39
55460;BME280;41326;45.302;-122.946;2023-01-31T05:40:49;102174.82;;;17.70;47.20
55460;BME280;41326;45.302;-122.946;2023-01-31T05:43:19;102167.26;;;17.65;47.21
55460;BME280;41326;45.302;-122.946;2023-01-31T05:45:49;102164.89;;;17.62;47.38
55460;BME280;41326;45.302;-122.946;2023-01-31T05:48:20;102158.48;;;17.63;47.33
55460;BME280;41326;45.302;-122.946;2023-01-31T05:50:50;102147.18;;;17.62;47.41
55460;BME280;41326;45.302;-122.946;2023-01-31T05:53:21;102141.79;;;17.56;47.46
55460;BME280;41326;45.302;-122.946;2023-01-31T05:55:52;102144.89;;;17.53;47.61
55460;BME280;41326;45.302;-122.946;2023-01-31T05:58:22;102147.81;;;17.51;47.49
55460;BME280;41326;45.302;-122.946;2023-01-31T06:00:54;102147.21;;;17.49;47.32
55460;BME280;41326;45.302;-122.946;2023-01-31T06:03:22;102141.94;;;17.46;47.32
55460;BME280;41326;45.302;-122.946;2023-01-31T06:05:53;102150.88;;;17.45;47.72
55460;BME280;41326;45.302;-122.946;2023-01-31T06:08:22;102159.59;;;17.42;47.67
55460;BME280;41326;45.302;-122.946;2023-01-31T06:10:53;102161.70;;;17.39;47.66
55460;BME280;41326;45.302;-122.946;2023-01-31T06:13:24;102156.26;;;17.36;48.00
55460;BME280;41326;45.302;-122.946;2023-01-31T06:15:54;102161.01;;;17.34;48.13
55460;BME280;41326;45.302;-122.946;2023-01-31T06:18:24;102155.95;;;17.30;48.30
55460;BME280;41326;45.302;-122.946;2023-01-31T06:20:54;102153.26;;;17.28;48.39
55460;BME280;41326;45.302;-122.946;2023-01-31T06:23:24;102153.77;;;17.22;48.84
55460;BME280;41326;45.302;-122.946;2023-01-31T06:25:54;102158.87;;;17.20;48.90
55460;BME280;41326;45.302;-122.946;2023-01-31T06:28:26;102156.49;;;17.20;48.63
55460;BME280;41326;45.302;-122.946;2023-01-31T06:30:54;102161.37;;;17.16;48.77
55460;BME280;41326;45.302;-122.946;2023-01-31T06:33:25;102165.44;;;17.12;48.94
55460;BME280;41326;45.302;-122.946;2023-01-31T06:35:58;102161.42;;;17.09;48.99
55460;BME280;41326;45.302;-122.946;2023-01-31T06:38:26;102156.38;;;17.11;49.12
55460;BME280;41326;45.302;-122.946;2023-01-31T06:40:56;102150.03;;;17.10;49.01
55460;BME280;41326;45.302;-122.946;2023-01-31T06:43:27;102147.17;;;17.09;49.03
55460;BME280;41326;45.302;-122.946;2023-01-31T06:45:57;102146.38;;;17.07;49.12
55460;BME280;41326;45.302;-122.946;2023-01-31T06:48:28;102137.45;;;17.04;49.46
55460;BME280;41326;45.302;-122.946;2023-01-31T06:50:58;102132.71;;;17.01;49.44
55460;BME280;41326;45.302;-122.946;2023-01-31T06:53:29;102138.26;;;17.00;49.43
55460;BME280;41326;45.302;-122.946;2023-01-31T06:55:59;102137.00;;;16.94;49.63
55460;BME280;41326;45.302;-122.946;2023-01-31T06:58:42;102139.88;;;16.95;49.53
55460;BME280;41326;45.302;-122.946;2023-01-31T07:01:03;102136.16;;;16.90;49.59
55460;BME280;41326;45.302;-122.946;2023-01-31T07:03:30;102137.00;;;16.89;49.65
55460;BME280;41326;45.302;-122.946;2023-01-31T07:06:01;102140.60;;;16.85;49.90
55460;BME280;41326;45.302;-122.946;2023-01-31T07:08:31;102138.70;;;16.84;49.91
55460;BME280;41326;45.302;-122.946;2023-01-31T07:11:01;102138.50;;;16.84;50.02
55460;BME280;41326;45.302;-122.946;2023-01-31T07:13:32;102142.84;;;16.82;50.24
55460;BME280;41326;45.302;-122.946;2023-01-31T07:16:07;102145.02;;;16.82;50.18
55460;BME280;41326;45.302;-122.946;2023-01-31T07:18:32;102149.84;;;16.81;50.11
55460;BME280;41326;45.302;-122.946;2023-01-31T07:21:03;102147.40;;;16.78;49.98
55460;BME280;41326;45.302;-122.946;2023-01-31T07:23:34;102136.60;;;16.77;50.10
55460;BME280;41326;45.302;-122.946;2023-01-31T07:26:04;102131.91;;;16.72;50.30
55460;BME280;41326;45.302;-122.946;2023-01-31T07:28:35;102130.46;;;16.73;50.08
55460;BME280;41326;45.302;-122.946;2023-01-31T07:31:10;102126.63;;;16.74;50.06
55460;BME280;41326;45.302;-122.946;2023-01-31T07:33:35;102129.51;;;16.68;50.16
55460;BME280;41326;45.302;-122.946;2023-01-31T07:36:07;102139.55;;;16.63;50.23
55460;BME280;41326;45.302;-122.946;2023-01-31T07:38:36;102141.92;;;16.63;50.26
55460;BME280;41326;45.302;-122.946;2023-01-31T07:41:08;102145.07;;;16.62;50.23
55460;BME280;41326;45.302;-122.946;2023-01-31T07:43:37;102141.70;;;16.58;50.29
55460;BME280;41326;45.302;-122.946;2023-01-31T07:46:07;102143.18;;;16.58;50.38
55460;BME280;41326;45.302;-122.946;2023-01-31T07:48:37;102137.67;;;16.56;50.29
55460;BME280;41326;45.302;-122.946;2023-01-31T07:51:08;102134.35;;;16.54;50.46
55460;BME280;41326;45.302;-122.946;2023-01-31T07:53:38;102127.69;;;16.46;50.45
55460;BME280;41326;45.302;-122.946;2023-01-31T07:56:12;102126.62;;;16.46;50.58
55460;BME280;41326;45.302;-122.946;2023-01-31T07:58:40;102125.55;;;16.43;50.71
55460;BME280;41326;45.302;-122.946;2023-01-31T08:01:09;102120.41;;;16.41;50.72
55460;BME280;41326;45.302;-122.946;2023-01-31T08:03:39;102113.06;;;16.40;50.88
55460;BME280;41326;45.302;-122.946;2023-01-31T08:06:12;102108.72;;;16.38;50.98
55460;BME280;41326;45.302;-122.946;2023-01-31T08:08:40;102107.59;;;16.36;50.90
55460;BME280;41326;45.302;-122.946;2023-01-31T08:11:09;102098.90;;;16.34;51.08
55460;BME280;41326;45.302;-122.946;2023-01-31T08:13:40;102090.11;;;16.33;50.99
55460;BME280;41326;45.302;-122.946;2023-01-31T08:16:12;102088.99;;;16.26;51.28
55460;BME280;41326;45.302;-122.946;2023-01-31T08:18:40;102093.83;;;16.27;51.17
55460;BME280;41326;45.302;-122.946;2023-01-31T08:21:11;102099.63;;;16.28;51.27
55460;BME280;41326;45.302;-122.946;2023-01-31T08:23:40;102101.71;;;16.22;51.31
55460;BME280;41326;45.302;-122.946;2023-01-31T08:26:12;102110.10;;;16.20;51.42
55460;BME280;41326;45.302;-122.946;2023-01-31T08:28:42;102121.43;;;16.18;51.40
55460;BME280;41326;45.302;-122.946;2023-01-31T08:31:12;102124.68;;;16.21;51.29
55460;BME280;41326;45.302;-122.946;2023-01-31T08:33:42;102128.34;;;16.20;51.32
55460;BME280;41326;45.302;-122.946;2023-01-31T08:36:16;102127.61;;;16.18;51.33
55460;BME280;41326;45.302;-122.946;2023-01-31T08:38:42;102118.02;;;16.17;51.36
55460;BME280;41326;45.302;-122.946;2023-01-31T08:41:12;102105.99;;;16.14;51.43
55460;BME280;41326;45.302;-122.946;2023-01-31T08:43:42;102101.08;;;16.12;51.29
55460;BME280;41326;45.302;-122.946;2023-01-31T08:46:12;102098.03;;;16.10;51.39
55460;BME280;41326;45.302;-122.946;2023-01-31T08:48:43;102095.97;;;16.10;51.35
55460;BME280;41326;45.302;-122.946;2023-01-31T08:51:14;102090.11;;;16.07;51.45
55460;BME280;41326;45.302;-122.946;2023-01-31T08:53:44;102098.38;;;16.05;51.43
55460;BME280;41326;45.302;-122.946;2023-01-31T08:56:14;102107.63;;;16.03;51.53
55460;BME280;41326;45.302;-122.946;2023-01-31T08:58:46;102102.88;;;16.02;51.49
55460;BME280;41326;45.302;-122.946;2023-01-31T09:01:16;102088.53;;;16.00;51.49
55460;BME280;41326;45.302;-122.946;2023-01-31T09:03:46;102087.28;;;15.97;51.56
55460;BME280;41326;45.302;-122.946;2023-01-31T09:06:18;102090.08;;;15.94;51.71
55460;BME280;41326;45.302;-122.946;2023-01-31T09:08:46;102100.82;;;15.90;51.85
55460;BME280;41326;45.302;-122.946;2023-01-31T09:11:16;102106.37;;;15.89;51.75
55460;BME280;41326;45.302;-122.946;2023-01-31T09:13:47;102114.45;;;15.85;51.93
55460;BME280;41326;45.302;-122.946;2023-01-31T09:16:18;102117.27;;;15.83;51.91
55460;BME280;41326;45.302;-122.946;2023-01-31T09:18:47;102111.24;;;15.78;51.87
55460;BME280;41326;45.302;-122.946;2023-01-31T09:21:19;102116.22;;;15.79;51.91
55460;BME280;41326;45.302;-122.946;2023-01-31T09:23:53;102120.64;;;15.78;51.93
55460;BME280;41326;45.302;-122.946;2023-01-31T09:26:19;102117.84;;;15.75;51.79
55460;BME280;41326;45.302;-122.946;2023-01-31T09:28:49;102114.56;;;15.73;51.80
55460;BME280;41326;45.302;-122.946;2023-01-31T09:31:20;102114.88;;;15.71;51.83
55460;BME280;41326;45.302;-122.946;2023-01-31T09:33:49;102117.42;;;15.65;51.92
55460;BME280;41326;45.302;-122.946;2023-01-31T09:36:21;102108.56;;;15.67;51.88
55460;BME280;41326;45.302;-122.946;2023-01-31T09:38:52;102108.70;;;15.64;51.94
55460;BME280;41326;45.302;-122.946;2023-01-31T09:41:28;102103.79;;;15.63;52.32
55460;BME280;41326;45.302;-122.946;2023-01-31T09:43:56;102099.48;;;15.58;52.69
55460;BME280;41326;45.302;-122.946;2023-01-31T09:46:24;102098.11;;;15.58;52.37
55460;BME280;41326;45.302;-122.946;2023-01-31T09:48:54;102101.80;;;15.56;52.40
55460;BME280;41326;45.302;-122.946;2023-01-31T09:51:21;102103.66;;;15.56;52.31
55460;BME280;41326;45.302;-122.946;2023-01-31T09:53:52;102108.00;;;15.54;52.31
55460;BME280;41326;45.302;-122.946;2023-01-31T09:56:31;102106.13;;;15.53;52.06
55460;BME280;41326;45.302;-122.946;2023-01-31T09:59:01;102098.67;;;15.55;51.97
55460;BME280;41326;45.302;-122.946;2023-01-31T10:01:29;102092.79;;;15.50;51.97
55460;BME280;41326;45.302;-122.946;2023-01-31T10:04:06;102090.42;;;15.47;52.06
55460;BME280;41326;45.302;-122.946;2023-01-31T10:06:26;102091.81;;;15.48;51.94
55460;BME280;41326;45.302;-122.946;2023-01-31T10:09:00;102090.94;;;15.42;52.07
55460;BME280;41326;45.302;-122.946;2023-01-31T10:11:33;102090.84;;;15.44;51.94
55460;BME280;41326;45.302;-122.946;2023-01-31T10:13:58;102089.75;;;15.42;51.84
55460;BME280;41326;45.302;-122.946;2023-01-31T10:16:31;102091.59;;;15.39;51.95
55460;BME280;41326;45.302;-122.946;2023-01-31T10:19:01;102095.24;;;15.40;51.81
55460;BME280;41326;45.302;-122.946;2023-01-31T10:21:30;102098.79;;;15.37;51.84
55460;BME280;41326;45.302;-122.946;2023-01-31T10:24:02;102100.79;;;15.36;51.70
55460;BME280;41326;45.302;-122.946;2023-01-31T10:26:30;102103.65;;;15.28;51.93
55460;BME280;41326;45.302;-122.946;2023-01-31T10:29:01;102107.92;;;15.29;51.80
55460;BME280;41326;45.302;-122.946;2023-01-31T10:32:38;102105.06;;;15.26;51.91
55460;BME280;41326;45.302;-122.946;2023-01-31T10:35:10;102103.82;;;15.28;51.87
55460;BME280;41326;45.302;-122.946;2023-01-31T10:37:41;102103.65;;;15.24;51.96
55460;BME280;41326;45.302;-122.946;2023-01-31T10:40:12;102108.55;;;15.21;51.94
55460;BME280;41326;45.302;-122.946;2023-01-31T10:42:38;102109.66;;;15.18;52.02
55460;BME280;41326;45.302;-122.946;2023-01-31T10:45:12;102109.63;;;15.18;52.07
55460;BME280;41326;45.302;-122.946;2023-01-31T10:47:40;102101.75;;;15.16;52.06
55460;BME280;41326;45.302;-122.946;2023-01-31T10:50:13;102096.98;;;15.14;51.95
55460;BME280;41326;45.302;-122.946;2023-01-31T10:52:52;102095.72;;;15.14;51.92
55460;BME280;41326;45.302;-122.946;2023-01-31T10:55:29;102097.81;;;15.10;51.96
55460;BME280;41326;45.302;-122.946;2023-01-31T10:57:47;102099.46;;;15.02;52.31
55460;BME280;41326;45.302;-122.946;2023-01-31T11:00:25;102103.74;;;15.02;52.24
55460;BME280;41326;45.302;-122.946;2023-01-31T11:02:47;102102.09;;;15.04;52.23
55460;BME280;41326;45.302;-122.946;2023-01-31T11:05:22;102102.13;;;15.03;52.17
55460;BME280;41326;45.302;-122.946;2023-01-31T11:07:48;102094.10;;;15.00;52.19
55460;BME280;41326;45.302;-122.946;2023-01-31T11:10:24;102095.89;;;14.97;52.02
55460;BME280;41326;45.302;-122.946;2023-01-31T11:12:56;102097.12;;;14.93;51.86
55460;BME280;41326;45.302;-122.946;2023-01-31T11:15:23;102095.75;;;15.01;51.25
55460;BME280;41326;45.302;-122.946;2023-01-31T11:17:50;102094.82;;;15.13;50.95
55460;BME280;41326;45.302;-122.946;2023-01-31T11:20:27;102091.80;;;15.13;50.83
55460;BME280;41326;45.302;-122.946;2023-01-31T11:22:52;102087.44;;;15.15;50.89
55460;BME280;41326;45.302;-122.946;2023-01-31T11:25:24;102086.07;;;15.12;51.04
55460;BME280;41326;45.302;-122.946;2023-01-31T11:27:53;102081.28;;;15.11;50.94
55460;BME280;41326;45.302;-122.946;2023-01-31T11:30:27;102077.24;;;15.08;50.98
55460;BME280;41326;45.302;-122.946;2023-01-31T11:32:52;102073.02;;;15.04;51.20
55460;BME280;41326;45.302;-122.946;2023-01-31T11:35:27;102068.65;;;15.01;51.22
55460;BME280;41326;45.302;-122.946;2023-01-31T11:37:55;102066.23;;;14.97;51.34
55460;BME280;41326;45.302;-122.946;2023-01-31T11:40:27;102062.02;;;14.91;51.28
55460;BME280;41326;45.302;-122.946;2023-01-31T11:42:57;102062.40;;;14.92;50.96
55460;BME280;41326;45.302;-122.946;2023-01-31T11:45:24;102067.02;;;15.01;50.58
55460;BME280;41326;45.302;-122.946;2023-01-31T11:47:56;102064.04;;;15.09;50.42
55460;BME280;41326;45.302;-122.946;2023-01-31T11:50:30;102060.07;;;15.12;50.29
55460;BME280;41326;45.302;-122.946;2023-01-31T11:53:00;102059.83;;;15.09;50.41
55460;BME280;41326;45.302;-122.946;2023-01-31T11:55:25;102060.59;;;15.09;50.48
55460;BME280;41326;45.302;-122.946;2023-01-31T11:57:59;102070.52;;;15.03;50.59
55460;BME280;41326;45.302;-122.946;2023-01-31T12:00:29;102069.64;;;15.02;50.52
55460;BME280;41326;45.302;-122.946;2023-01-31T12:03:00;102063.17;;;15.00;50.50
55460;BME280;41326;45.302;-122.946;2023-01-31T12:05:33;102061.53;;;14.92;50.97
55460;BME280;41326;45.302;-122.946;2023-01-31T12:07:56;102057.47;;;14.90;50.92
55460;BME280;41326;45.302;-122.946;2023-01-31T12:10:33;102057.78;;;14.87;50.80
55460;BME280;41326;45.302;-122.946;2023-01-31T12:12:58;102052.41;;;14.92;50.43
55460;BME280;41326;45.302;-122.946;2023-01-31T12:15:28;102045.49;;;15.02;49.99
55460;BME280;41326;45.302;-122.946;2023-01-31T12:17:59;102046.71;;;15.13;49.77
55460;BME280;41326;45.302;-122.946;2023-01-31T12:20:37;102049.07;;;15.06;49.89
55460;BME280;41326;45.302;-122.946;2023-01-31T12:23:08;102045.46;;;15.07;50.03
55460;BME280;41326;45.302;-122.946;2023-01-31T12:25:39;102046.79;;;15.06;50.07
55460;BME280;41326;45.302;-122.946;2023-01-31T12:28:07;102041.66;;;15.03;50.15
55460;BME280;41326;45.302;-122.946;2023-01-31T12:30:42;102037.12;;;15.00;50.25
55460;BME280;41326;45.302;-122.946;2023-01-31T12:33:15;102035.25;;;14.97;50.27
55460;BME280;41326;45.302;-122.946;2023-01-31T12:35:39;102041.55;;;14.95;50.21
55460;BME280;41326;45.302;-122.946;2023-01-31T12:38:08;102041.55;;;14.91;50.18
55460;BME280;41326;45.302;-122.946;2023-01-31T12:40:39;102037.07;;;14.92;50.08
55460;BME280;41326;45.302;-122.946;2023-01-31T12:43:03;102034.92;;;15.01;49.67
55460;BME280;41326;45.302;-122.946;2023-01-31T12:45:45;102038.20;;;15.08;49.35
55460;BME280;41326;45.302;-122.946;2023-01-31T12:48:15;102038.83;;;15.16;49.07